Wetterdaten: Woche 28.08.17 - 03.09.17 (KW35)
Datum Zeit Temp. A. Feuchte A. Luftdruck Regen Wind Richtung Taupunkt Windchill Windben
28.08.2017 00:00 20,4 C 74 % 1016,1 hPa 0,0 l/m 0,0 km/h N 15,6 C 20,4 C 1,2 km/h
28.08.2017 01:00 20,4 C 76 % 1016,1 hPa 0,0 l/m 0,9 km/h N 16,1 C 20,4 C 5,2 km/h
28.08.2017 02:00 21,0 C 74 % 1016,3 hPa 0,0 l/m 1,4 km/h N 16,1 C 21,0 C 8,4 km/h
28.08.2017 03:00 20,5 C 74 % 1016,3 hPa 0,0 l/m 0,7 km/h N 15,6 C 20,5 C 7,2 km/h
28.08.2017 04:00 19,8 C 75 % 1016,4 hPa 0,0 l/m 1,2 km/h N 15,1 C 19,8 C 7,6 km/h
28.08.2017 05:00 19,6 C 73 % 1016,7 hPa 0,0 l/m 1,7 km/h N 14,7 C 19,6 C 10,5 km/h
28.08.2017 06:00 19,3 C 73 % 1016,9 hPa 0,0 l/m 1,6 km/h N 14,3 C 19,3 C 11,3 km/h
28.08.2017 07:00 19,2 C 73 % 1017,4 hPa 0,0 l/m 1,6 km/h N 14,1 C 19,2 C 11,3 km/h
28.08.2017 08:00 19,5 C 72 % 1017,8 hPa 0,0 l/m 1,6 km/h N 14,3 C 19,5 C 10,5 km/h
28.08.2017 09:00 20,8 C 66 % 1018,0 hPa 0,0 l/m 0,8 km/h N 14,2 C 20,8 C 8,0 km/h
28.08.2017 10:00 22,0 C 59 % 1018,0 hPa 0,0 l/m 1,9 km/h N 13,6 C 22,0 C 10,1 km/h
28.08.2017 11:00 23,0 C 56 % 1018,0 hPa 0,0 l/m 1,6 km/h N 13,9 C 23,0 C 10,5 km/h
28.08.2017 12:00 23,0 C 55 % 1018,1 hPa 0,0 l/m 2,0 km/h N 13,5 C 23,0 C 11,3 km/h
28.08.2017 13:00 23,3 C 55 % 1017,3 hPa 0,0 l/m 1,6 km/h N 13,7 C 23,3 C 10,5 km/h
28.08.2017 14:00 23,7 C 56 % 1017,1 hPa 0,0 l/m 0,9 km/h N 14,2 C 23,7 C 10,4 km/h
28.08.2017 15:00 23,6 C 57 % 1016,9 hPa 0,0 l/m 1,2 km/h N 14,5 C 23,6 C 8,4 km/h
28.08.2017 16:00 23,4 C 58 % 1016,7 hPa 0,0 l/m 1,7 km/h N 14,5 C 23,4 C 10,5 km/h
28.08.2017 17:00 23,6 C 56 % 1016,5 hPa 0,0 l/m 1,9 km/h N 14,2 C 23,6 C 11,6 km/h
28.08.2017 18:00 23,6 C 55 % 1016,3 hPa 0,0 l/m 1,1 km/h N 13,9 C 23,6 C 8,4 km/h
28.08.2017 19:00 22,9 C 57 % 1016,3 hPa 0,0 l/m 0,3 km/h N 14,0 C 22,9 C 4,8 km/h
28.08.2017 20:00 20,6 C 64 % 1016,6 hPa 0,0 l/m 0,0 km/h N 13,6 C 20,6 C 0,0 km/h
28.08.2017 21:00 18,3 C 72 % 1017,2 hPa 0,0 l/m 0,0 km/h N 13,0 C 18,3 C 0,8 km/h
28.08.2017 22:00 18,4 C 74 % 1017,8 hPa 0,0 l/m 0,1 km/h N 13,5 C 18,4 C 2,8 km/h
28.08.2017 23:00 18,9 C 64 % 1018,3 hPa 0,0 l/m 0,1 km/h N 12,0 C 18,9 C 2,4 km/h
29.08.2017 00:00 17,4 C 69 % 1018,6 hPa 0,0 l/m 0,0 km/h N 11,5 C 17,4 C 0,0 km/h
29.08.2017 01:00 15,3 C 74 % 1018,7 hPa 0,0 l/m 0,0 km/h N 10,7 C 15,3 C 0,0 km/h
29.08.2017 02:00 14,1 C 78 % 1018,8 hPa 0,0 l/m 0,0 km/h N 10,2 C 14,1 C 0,4 km/h
29.08.2017 03:00 13,2 C 79 % 1018,9 hPa 0,0 l/m 0,0 km/h N 9,6 C 13,2 C 0,0 km/h
29.08.2017 04:00 12,5 C 80 % 1019,0 hPa 0,0 l/m 0,0 km/h N 9,2 C 12,5 C 0,0 km/h
29.08.2017 05:00 12,3 C 81 % 1019,1 hPa 0,0 l/m 0,0 km/h N 9,1 C 12,3 C 0,8 km/h
29.08.2017 06:00 11,9 C 82 % 1019,3 hPa 0,0 l/m 0,0 km/h N 8,8 C 11,9 C 0,8 km/h
29.08.2017 07:00 12,3 C 82 % 1019,5 hPa 0,0 l/m 0,0 km/h N 9,3 C 12,3 C 0,0 km/h
29.08.2017 08:00 13,9 C 81 % 1019,4 hPa 0,0 l/m 0,0 km/h N 10,7 C 13,9 C 0,4 km/h
29.08.2017 09:00 18,3 C 68 % 1019,4 hPa 0,0 l/m 0,0 km/h N 12,1 C 18,3 C 1,6 km/h
29.08.2017 10:00 22,0 C 54 % 1019,1 hPa 0,0 l/m 0,1 km/h N 12,2 C 22,0 C 2,8 km/h
29.08.2017 11:00 23,8 C 46 % 1018,8 hPa 0,0 l/m 0,6 km/h N 11,3 C 23,8 C 5,2 km/h
29.08.2017 12:00 24,4 C 43 % 1018,3 hPa 0,0 l/m 0,5 km/h N 11,1 C 24,4 C 6,4 km/h
29.08.2017 13:00 24,7 C 44 % 1017,8 hPa 0,0 l/m 0,9 km/h N 11,4 C 24,7 C 6,8 km/h
29.08.2017 14:00 25,2 C 41 % 1017,3 hPa 0,0 l/m 0,8 km/h N 11,1 C 25,2 C 7,6 km/h
29.08.2017 15:00 25,3 C 39 % 1016,9 hPa 0,0 l/m 1,4 km/h N 10,2 C 25,3 C 8,1 km/h
29.08.2017 16:00 24,8 C 39 % 1016,5 hPa 0,0 l/m 0,2 km/h N 10,0 C 24,8 C 5,2 km/h
29.08.2017 17:00 24,7 C 39 % 1015,9 hPa 0,0 l/m 0,3 km/h N 9,8 C 24,7 C 5,6 km/h
29.08.2017 18:00 24,3 C 41 % 1015,8 hPa 0,0 l/m 0,1 km/h N 10,1 C 24,3 C 2,8 km/h
29.08.2017 19:00 23,5 C 46 % 1015,8 hPa 0,0 l/m 0,2 km/h N 11,3 C 23,5 C 3,2 km/h
29.08.2017 20:00 22,3 C 50 % 1016,0 hPa 0,0 l/m 0,0 km/h N 11,2 C 22,3 C 0,8 km/h
29.08.2017 21:00 19,3 C 59 % 1015,9 hPa 0,0 l/m 0,0 km/h N 11,1 C 19,3 C 0,0 km/h
29.08.2017 22:00 16,7 C 68 % 1016,0 hPa 0,0 l/m 0,0 km/h N 10,7 C 16,7 C 0,0 km/h
29.08.2017 23:00 15,3 C 73 % 1015,8 hPa 0,0 l/m 0,0 km/h N 10,5 C 15,3 C 0,0 km/h
30.08.2017 00:00 14,3 C 76 % 1015,6 hPa 0,0 l/m 0,0 km/h N 10,1 C 14,3 C 0,0 km/h
30.08.2017 01:00 13,4 C 78 % 1015,5 hPa 0,0 l/m 0,0 km/h N 9,7 C 13,4 C 0,0 km/h
30.08.2017 02:00 12,9 C 80 % 1015,3 hPa 0,0 l/m 0,0 km/h N 9,6 C 12,9 C 0,0 km/h
30.08.2017 03:00 12,4 C 81 % 1015,3 hPa 0,0 l/m 0,0 km/h N 9,3 C 12,4 C 0,4 km/h
30.08.2017 04:00 12,0 C 82 % 1015,1 hPa 0,0 l/m 0,0 km/h N 9,0 C 12,0 C 0,0 km/h
30.08.2017 05:00 11,6 C 82 % 1015,3 hPa 0,0 l/m 0,0 km/h N 8,7 C 11,6 C 0,0 km/h
30.08.2017 06:00 11,6 C 82 % 1015,5 hPa 0,0 l/m 0,0 km/h N 8,6 C 11,6 C 0,4 km/h
30.08.2017 07:00 12,1 C 82 % 1015,5 hPa 0,0 l/m 0,0 km/h N 9,1 C 12,1 C 0,0 km/h
30.08.2017 08:00 13,8 C 83 % 1015,6 hPa 0,0 l/m 0,0 km/h N 10,9 C 13,8 C 0,0 km/h
30.08.2017 09:00 17,8 C 77 % 1015,4 hPa 0,0 l/m 0,1 km/h N 13,7 C 17,8 C 2,4 km/h
30.08.2017 10:00 23,1 C 58 % 1015,3 hPa 0,0 l/m 0,6 km/h N 14,4 C 23,1 C 5,6 km/h
30.08.2017 11:00 26,1 C 50 % 1014,8 hPa 0,0 l/m 0,5 km/h N 14,8 C 26,1 C 4,4 km/h
30.08.2017 12:00 29,0 C 44 % 1014,1 hPa 0,0 l/m 0,9 km/h N 15,4 C 29,0 C 6,8 km/h
30.08.2017 13:00 30,6 C 41 % 1013,7 hPa 0,0 l/m 1,2 km/h N 15,8 C 30,6 C 7,2 km/h
30.08.2017 14:00 30,2 C 41 % 1013,4 hPa 0,0 l/m 1,4 km/h N 15,3 C 30,2 C 8,9 km/h
30.08.2017 15:00 29,7 C 40 % 1012,9 hPa 0,0 l/m 1,2 km/h N 14,7 C 29,7 C 6,8 km/h
30.08.2017 16:00 29,3 C 41 % 1012,6 hPa 0,0 l/m 1,2 km/h N 14,5 C 29,3 C 6,4 km/h
30.08.2017 17:00 28,8 C 42 % 1012,3 hPa 0,0 l/m 1,9 km/h N 14,7 C 28,8 C 8,4 km/h
30.08.2017 18:00 27,9 C 46 % 1012,0 hPa 0,0 l/m 1,6 km/h N 15,1 C 27,9 C 9,2 km/h
30.08.2017 19:00 26,8 C 47 % 1012,0 hPa 0,0 l/m 1,2 km/h N 14,5 C 26,8 C 7,2 km/h
30.08.2017 20:00 25,1 C 50 % 1012,2 hPa 0,0 l/m 0,0 km/h N 13,9 C 25,1 C 1,2 km/h
30.08.2017 21:00 22,5 C 58 % 1012,1 hPa 0,0 l/m 0,0 km/h N 13,7 C 22,5 C 0,0 km/h
30.08.2017 22:00 19,4 C 67 % 1011,9 hPa 0,0 l/m 0,0 km/h N 13,0 C 19,4 C 0,0 km/h
30.08.2017 23:00 17,6 C 73 % 1011,8 hPa 0,0 l/m 0,0 km/h N 12,7 C 17,6 C 0,0 km/h
31.08.2017 00:00 16,6 C 77 % 1011,7 hPa 0,0 l/m 0,0 km/h N 12,6 C 16,6 C 0,0 km/h
31.08.2017 01:00 15,8 C 79 % 1011,2 hPa 0,0 l/m 0,0 km/h N 12,1 C 15,8 C 0,0 km/h
31.08.2017 02:00 15,0 C 81 % 1010,7 hPa 0,0 l/m 0,0 km/h N 11,7 C 15,0 C 0,0 km/h
31.08.2017 03:00 14,4 C 82 % 1010,7 hPa 0,0 l/m 0,0 km/h N 11,2 C 14,4 C 0,0 km/h
31.08.2017 04:00 13,9 C 82 % 1010,5 hPa 0,0 l/m 0,0 km/h N 10,9 C 13,9 C 0,0 km/h
31.08.2017 05:00 13,4 C 82 % 1010,9 hPa 0,0 l/m 0,0 km/h N 10,4 C 13,4 C 0,0 km/h
31.08.2017 06:00 13,4 C 82 % 1011,6 hPa 0,0 l/m 0,1 km/h N 10,4 C 13,4 C 0,8 km/h
31.08.2017 07:00 14,7 C 82 % 1012,4 hPa 0,0 l/m 0,1 km/h N 11,6 C 14,7 C 2,0 km/h
31.08.2017 08:00 16,9 C 78 % 1012,6 hPa 0,0 l/m 0,2 km/h N 13,1 C 16,9 C 2,8 km/h
31.08.2017 09:00 20,2 C 68 % 1012,7 hPa 0,0 l/m 0,6 km/h N 14,0 C 20,2 C 6,4 km/h
31.08.2017 10:00 23,6 C 61 % 1012,4 hPa 0,0 l/m 0,4 km/h N 15,6 C 23,6 C 5,6 km/h
31.08.2017 11:00 26,9 C 53 % 1012,3 hPa 0,0 l/m 0,4 km/h N 16,3 C 26,9 C 4,4 km/h
31.08.2017 12:00 27,9 C 51 % 1011,8 hPa 0,0 l/m 0,3 km/h N 16,9 C 27,9 C 6,0 km/h
31.08.2017 13:00 29,8 C 50 % 1011,3 hPa 0,0 l/m 0,4 km/h N 18,2 C 29,8 C 5,6 km/h
31.08.2017 14:00 30,3 C 47 % 1010,9 hPa 0,0 l/m 1,0 km/h N 17,6 C 30,3 C 7,6 km/h
31.08.2017 15:00 30,1 C 44 % 1010,6 hPa 0,0 l/m 0,8 km/h N 16,6 C 30,1 C 6,4 km/h
31.08.2017 16:00 30,1 C 45 % 1010,0 hPa 0,0 l/m 1,1 km/h N 16,8 C 30,1 C 8,0 km/h
31.08.2017 17:00 29,7 C 46 % 1009,4 hPa 0,0 l/m 0,9 km/h N 16,9 C 29,7 C 9,7 km/h
31.08.2017 18:00 28,8 C 50 % 1010,3 hPa 0,0 l/m 0,1 km/h N 17,2 C 28,8 C 2,8 km/h
31.08.2017 19:00 26,6 C 58 % 1010,8 hPa 0,0 l/m 0,0 km/h N 17,5 C 26,6 C 0,0 km/h
31.08.2017 20:00 24,6 C 65 % 1011,4 hPa 0,0 l/m 0,3 km/h N 17,6 C 24,6 C 4,8 km/h
31.08.2017 21:00 24,8 C 68 % 1012,4 hPa 0,0 l/m 3,4 km/h N 18,5 C 24,8 C 20,9 km/h
31.08.2017 22:00 23,9 C 70 % 1012,7 hPa 0,0 l/m 6,3 km/h N 18,1 C 23,6 C 25,8 km/h
31.08.2017 23:00 22,4 C 73 % 1013,1 hPa 0,0 l/m 2,8 km/h N 17,2 C 22,4 C 18,1 km/h
01.09.2017 00:00 21,5 C 74 % 1013,1 hPa 0,0 l/m 2,9 km/h N 16,7 C 21,5 C 17,3 km/h
01.09.2017 01:00 20,9 C 76 % 1013,3 hPa 0,0 l/m 1,8 km/h N 16,4 C 20,9 C 12,1 km/h
01.09.2017 02:00 20,7 C 76 % 1013,5 hPa 0,0 l/m 4,9 km/h N 16,3 C 20,6 C 19,7 km/h
01.09.2017 03:00 20,3 C 77 % 1013,3 hPa 0,0 l/m 7,8 km/h N 16,1 C 19,8 C 21,7 km/h
01.09.2017 04:00 20,1 C 77 % 1013,1 hPa 0,0 l/m 7,6 km/h N 16,0 C 19,7 C 20,9 km/h
01.09.2017 05:00 20,1 C 77 % 1013,3 hPa 0,0 l/m 6,9 km/h N 15,9 C 19,7 C 21,7 km/h
01.09.2017 06:00 19,8 C 78 % 1013,1 hPa 0,0 l/m 5,1 km/h N 15,7 C 19,8 C 14,5 km/h
01.09.2017 07:00 19,6 C 78 % 1013,3 hPa 0,0 l/m 4,9 km/h N 15,7 C 19,6 C 14,9 km/h
01.09.2017 08:00 19,4 C 79 % 1012,9 hPa 0,0 l/m 7,3 km/h N 15,6 C 18,9 C 18,9 km/h
01.09.2017 09:00 19,3 C 79 % 1013,3 hPa 0,0 l/m 8,4 km/h N 15,6 C 18,4 C 23,3 km/h
01.09.2017 10:00 20,1 C 76 % 1013,0 hPa 0,0 l/m 8,9 km/h N 15,8 C 19,2 C 22,5 km/h
01.09.2017 11:00 20,9 C 74 % 1012,8 hPa 0,0 l/m 9,4 km/h N 16,0 C 19,8 C 24,1 km/h
01.09.2017 12:00 20,9 C 74 % 1012,3 hPa 0,0 l/m 8,4 km/h N 15,9 C 20,1 C 22,5 km/h
01.09.2017 13:00 20,0 C 75 % 1012,3 hPa 0,0 l/m 7,9 km/h N 15,5 C 19,4 C 21,3 km/h
01.09.2017 14:00 18,5 C 80 % 1012,3 hPa 4,2 l/m 1,2 km/h N 15,0 C 18,5 C 8,8 km/h
01.09.2017 15:00 18,1 C 81 % 1012,0 hPa 0,5 l/m 1,9 km/h N 14,7 C 18,1 C 9,7 km/h
01.09.2017 16:00 17,9 C 81 % 1011,7 hPa 0,3 l/m 2,3 km/h N 14,6 C 17,9 C 10,1 km/h
01.09.2017 17:00 17,2 C 81 % 1011,5 hPa 1,8 l/m 4,6 km/h N 13,9 C 17,2 C 16,1 km/h
01.09.2017 18:00 16,2 C 82 % 1012,6 hPa 1,6 l/m 4,1 km/h N 13,1 C 16,2 C 16,5 km/h
01.09.2017 19:00 15,5 C 82 % 1013,3 hPa 0,0 l/m 6,0 km/h N 12,5 C 15,2 C 17,7 km/h
01.09.2017 20:00 15,3 C 82 % 1014,1 hPa 0,0 l/m 6,1 km/h N 12,2 C 14,9 C 18,1 km/h
01.09.2017 21:00 15,3 C 81 % 1014,1 hPa 0,0 l/m 8,5 km/h N 12,1 C 14,3 C 22,1 km/h
01.09.2017 22:00 14,9 C 81 % 1014,1 hPa 0,3 l/m 7,7 km/h N 11,7 C 14,2 C 20,9 km/h
01.09.2017 23:00 14,7 C 81 % 1014,4 hPa 0,0 l/m 7,9 km/h N 11,4 C 13,8 C 22,1 km/h
02.09.2017 00:00 14,5 C 80 % 1014,7 hPa 0,0 l/m 7,7 km/h N 11,1 C 13,8 C 20,1 km/h
02.09.2017 01:00 14,2 C 80 % 1015,0 hPa 0,0 l/m 8,5 km/h N 10,8 C 13,0 C 21,3 km/h
02.09.2017 02:00 14,0 C 79 % 1014,7 hPa 0,0 l/m 5,0 km/h N 10,4 C 14,0 C 18,1 km/h
02.09.2017 03:00 13,8 C 80 % 1014,8 hPa 0,0 l/m 6,1 km/h N 10,4 C 13,8 C 18,1 km/h
02.09.2017 04:00 13,6 C 79 % 1014,9 hPa 0,0 l/m 6,2 km/h N 10,1 C 13,6 C 19,3 km/h
02.09.2017 05:00 13,4 C 80 % 1015,0 hPa 0,0 l/m 3,5 km/h N 10,0 C 13,4 C 12,9 km/h
02.09.2017 06:00 13,3 C 80 % 1015,0 hPa 0,0 l/m 3,9 km/h N 9,9 C 13,3 C 14,1 km/h
02.09.2017 07:00 13,4 C 80 % 1014,9 hPa 0,0 l/m 5,5 km/h N 10,0 C 13,4 C 17,7 km/h
02.09.2017 08:00 13,9 C 79 % 1014,9 hPa 0,0 l/m 5,3 km/h N 10,3 C 13,9 C 16,1 km/h
02.09.2017 09:00 14,4 C 77 % 1015,4 hPa 0,0 l/m 5,5 km/h N 10,4 C 14,2 C 16,1 km/h
02.09.2017 10:00 15,7 C 73 % 1014,9 hPa 0,0 l/m 4,3 km/h N 10,9 C 15,7 C 18,1 km/h
02.09.2017 11:00 16,4 C 70 % 1014,6 hPa 0,0 l/m 5,2 km/h N 11,0 C 16,4 C 17,7 km/h
02.09.2017 12:00 16,7 C 68 % 1014,6 hPa 0,0 l/m 3,8 km/h N 10,8 C 16,7 C 16,9 km/h
02.09.2017 13:00 16,7 C 69 % 1014,5 hPa 0,0 l/m 3,3 km/h N 11,0 C 16,7 C 16,5 km/h
02.09.2017 14:00 17,4 C 67 % 1013,7 hPa 0,0 l/m 3,7 km/h N 11,1 C 17,4 C 12,9 km/h
02.09.2017 15:00 17,6 C 66 % 1013,3 hPa 0,0 l/m 3,8 km/h N 11,3 C 17,6 C 13,3 km/h
02.09.2017 16:00 17,4 C 68 % 1013,0 hPa 0,0 l/m 3,1 km/h N 11,4 C 17,4 C 15,3 km/h
02.09.2017 17:00 16,8 C 70 % 1012,7 hPa 0,0 l/m 2,3 km/h N 11,2 C 16,8 C 12,1 km/h
02.09.2017 18:00 16,6 C 67 % 1012,6 hPa 0,0 l/m 2,4 km/h N 10,3 C 16,6 C 11,3 km/h
02.09.2017 19:00 16,3 C 65 % 1012,6 hPa 0,0 l/m 2,0 km/h N 9,7 C 16,3 C 11,7 km/h
02.09.2017 20:00 15,9 C 64 % 1012,5 hPa 0,0 l/m 2,5 km/h N 9,1 C 15,9 C 11,7 km/h
02.09.2017 21:00 15,5 C 66 % 1012,4 hPa 0,0 l/m 2,3 km/h N 9,1 C 15,5 C 10,1 km/h
02.09.2017 22:00 15,1 C 67 % 1012,4 hPa 0,0 l/m 2,9 km/h N 9,1 C 15,1 C 14,5 km/h
02.09.2017 23:00 14,8 C 70 % 1012,2 hPa 0,0 l/m 4,8 km/h N 9,3 C 14,8 C 16,1 km/h
03.09.2017 00:00 14,6 C 69 % 1012,1 hPa 0,0 l/m 5,4 km/h N 9,1 C 14,6 C 18,9 km/h
03.09.2017 01:00 14,4 C 71 % 1011,9 hPa 0,0 l/m 5,9 km/h N 9,2 C 14,4 C 17,3 km/h
03.09.2017 02:00 13,7 C 77 % 1011,3 hPa 0,3 l/m 5,8 km/h N 9,6 C 13,5 C 16,1 km/h
03.09.2017 03:00 13,0 C 81 % 1010,9 hPa 0,0 l/m 7,6 km/h N 9,8 C 12,3 C 20,1 km/h
03.09.2017 04:00 12,8 C 82 % 1010,8 hPa 0,3 l/m 7,8 km/h N 9,8 C 12,0 C 21,3 km/h
03.09.2017 05:00 12,8 C 82 % 1010,9 hPa 1,3 l/m 8,0 km/h N 9,8 C 11,7 C 21,3 km/h
03.09.2017 06:00 12,6 C 82 % 1010,8 hPa 1,0 l/m 7,9 km/h N 9,6 C 11,5 C 22,1 km/h
03.09.2017 07:00 12,4 C 82 % 1011,1 hPa 0,0 l/m 5,1 km/h N 9,4 C 12,4 C 16,9 km/h
03.09.2017 08:00 12,5 C 82 % 1011,5 hPa 0,5 l/m 5,1 km/h N 9,5 C 12,5 C 17,3 km/h
03.09.2017 09:00 12,5 C 82 % 1011,8 hPa 0,5 l/m 6,2 km/h N 9,5 C 12,5 C 18,1 km/h
03.09.2017 10:00 12,7 C 82 % 1012,1 hPa 0,0 l/m 6,0 km/h N 9,7 C 12,6 C 20,5 km/h
03.09.2017 11:00 12,9 C 82 % 1012,4 hPa 0,8 l/m 6,6 km/h N 9,9 C 12,6 C 21,7 km/h
03.09.2017 12:00 13,5 C 82 % 1012,5 hPa 0,3 l/m 7,4 km/h N 10,4 C 12,9 C 22,9 km/h
03.09.2017 13:00 14,4 C 79 % 1012,1 hPa 0,0 l/m 8,0 km/h N 10,8 C 13,5 C 24,9 km/h
03.09.2017 14:00 15,6 C 71 % 1011,7 hPa 0,0 l/m 10,8 km/h N 10,4 C 13,5 C 30,2 km/h
03.09.2017 15:00 16,2 C 66 % 1011,3 hPa 0,0 l/m 9,6 km/h N 9,8 C 14,6 C 27,4 km/h
03.09.2017 16:00 16,7 C 65 % 1011,2 hPa 0,0 l/m 8,7 km/h N 10,1 C 15,5 C 26,5 km/h
03.09.2017 17:00 16,4 C 69 % 1011,3 hPa 0,0 l/m 10,1 km/h N 10,7 C 14,6 C 25,7 km/h
03.09.2017 18:00 15,0 C 73 % 1011,5 hPa 0,0 l/m 10,0 km/h N 10,2 C 13,1 C 25,4 km/h
03.09.2017 19:00 14,4 C 74 % 1012,2 hPa 0,0 l/m 8,8 km/h N 9,7 C 13,1 C 23,7 km/h
03.09.2017 20:00 13,9 C 76 % 1012,7 hPa 0,0 l/m 7,8 km/h N 9,8 C 13,0 C 20,5 km/h
03.09.2017 21:00 13,8 C 76 % 1013,1 hPa 0,0 l/m 8,7 km/h N 9,5 C 12,4 C 22,9 km/h
03.09.2017 22:00 13,4 C 75 % 1013,3 hPa 0,0 l/m 9,7 km/h N 9,0 C 11,6 C 24,9 km/h
03.09.2017 23:00 13,4 C 73 % 1013,2 hPa 0,0 l/m 11,1 km/h N 8,7 C 10,9 C 26,5 km/h
Min-Datum _ 30.08.17 29.08.17 31.08.17 - 28.08.17 - 30.08.17 03.09.17 28.08.17
_ Min-Zeit 05:15 15:15 17:15 - 00:00 - 05:30 23:15 00:45
Minimum _ 11,6 C 38 % 1009,2 hPa - 0,0 km/h - 8,6 C 10,5 C 0,0 km/h
Max-Datum _ 30.08.17 30.08.17 29.08.17 01.09.17 03.09.17 - 31.08.17 30.08.17 03.09.17
_ Max-Zeit 13:30 07:45 07:15 14:15 23:15 - 13:45 13:30 14:45
Maximum _ 30,8 C 83 % 1019,6 hPa 4,2 l/m 12,2 km/h
N
- 18,6 C 30,8 C 33,8 km/h
N
Durchschnitt _ 18,7 C 69 % 1014,1 hPa #13,5 l/m 2,9 km/h N 12,5 C 18,5 C 10,7 km/h